Flight Track Log - Related Links

Times and Time Zones

All times are in EDT time to prevent confusion due to time zone crossing. See the GJS6221 flight status page for this flight to view local times or setup timezone preferences in your user account.

Time Position Orientation Groundspeed Altitude Reporting Facility
EDT Latitude Longitude Course Direction KTS MPH feet Rate Location/Type
Sat 07:20:14 AM 45.4667 -73.7000 203° Southwest 140 161 1,600  Level Montreal Center
Sat 07:21:14 AM 45.5167 -73.6500 35° Northeast 190 219 3,200 2,000 Climbing Montreal Center
Sat 07:22:14 AM 45.5167 -73.5833 90° East 230 265 5,600 2,350 Climbing Montreal Center
Sat 07:23:14 AM 45.4667 -73.5333 145° Southeast 260 299 7,900 2,650 Climbing Montreal Center
Sat 07:24:14 AM 45.3833 -73.5833 203° Southwest 270 311 10,900 2,600 Climbing Montreal Center
Sat 07:25:00 AM 44.9142 -74.0181 203° Southwest  Level FlightAware Approximate
Sat 07:25:14 AM 45.3167 -73.6333 208° Southwest 300 345 13,100  Level Montreal Center
Sat 07:26:14 AM 45.2333 -73.7167 215° Southwest 330 380 15,200 2,050 Climbing Montreal Center
Sat 07:27:14 AM 45.1500 -73.7833 209° Southwest 340 391 17,200 1,600 Climbing Montreal Center
Sat 07:28:14 AM 45.0667 -73.8333 203° Southwest 350 403 18,400 1,450 Climbing Montreal Center
Sat 07:29:14 AM 44.9667 -73.9167 211° Southwest 370 426 20,100 1,700 Climbing Montreal Center
Sat 07:30:14 AM 44.8667 -73.9167 180° South 390 449 21,800 1,400 Climbing Montreal Center
Sat 07:31:14 AM 44.7500 -73.9000 174° South 410 472 22,900 1,150 Climbing Montreal Center
Sat 07:32:14 AM 44.6333 -73.9000 180° South 440 506 24,100 1,450 Climbing Montreal Center
Sat 07:33:14 AM 44.5167 -73.8833 174° South 440 506 25,800 1,500 Climbing Montreal Center
Sat 07:34:14 AM 44.3833 -73.8833 180° South 440 506 27,100 1,100 Climbing Montreal Center
Sat 07:35:14 AM 44.2667 -73.8667 174° South 450 518 28,000 450 Climbing Montreal Center
Sat 07:36:14 AM 44.1167 -73.8667 180° South 470 541 28,000  Level Montreal Center
Sat 07:37:14 AM 44.0000 -73.8500 174° South 480 552 28,000  Level Montreal Center
Sat 07:38:14 AM 43.8500 -73.8667 185° South 490 564 28,000  Level Montreal Center
Sat 07:39:14 AM 43.7167 -73.8333 170° South 490 564 28,000  Level Montreal Center
Sat 07:40:14 AM 43.5833 -73.8500 185° South 490 564 28,000  Level Montreal Center
Sat 07:41:14 AM 43.4667 -73.8333 174° South 480 552 28,000  Level Montreal Center
Sat 07:42:25 AM 43.2986 -73.8322 180° South 489 563 28,000  Level Boston Center
Sat 07:43:25 AM 43.1611 -73.8264 178° South 489 563 28,000  Level Boston Center
Sat 07:44:37 AM 43.0278 -73.8203 178° South 489 563 28,000 -91 Level Boston Center
Sat 07:45:37 AM 42.8839 -73.8144 178° South 489 563 27,800 -1,550 Descending Boston Center
Sat 07:46:37 AM 42.7547 -73.8058 177° South 476 548 24,900 -2,450 Descending Boston Center
Sat 07:47:37 AM 42.6322 -73.7861 173° South 463 533 22,900 -1,850 Descending Boston Center
Sat 07:48:37 AM 42.5072 -73.7608 172° South 443 510 21,200 -1,600 Descending Boston Center
Sat 07:49:37 AM 42.3908 -73.7333 170° South 424 488 19,700 -1,300 Descending Boston Center
Sat 07:50:37 AM 42.2786 -73.7083 171° South 418 481 18,600 -850 Descending Boston Center
Sat 07:51:37 AM 42.1722 -73.7119 181° South 403 464 18,000 -300 Descending Boston Center
Sat 07:52:37 AM 42.0742 -73.7267 186° South 394 453 18,000  Level Boston Center
Sat 07:53:37 AM 41.9533 -73.7381 184° South 394 453 18,000 -150 Level Boston Center
Sat 07:54:37 AM 41.8531 -73.7500 185° South 407 468 17,700 -1,350 Descending Boston Center
Sat 07:55:37 AM 41.7342 -73.7614 184° South 401 461 15,300 -2,200 Descending Boston Center
Sat 07:56:37 AM 41.6422 -73.7706 184° South 383 441 13,300 -2,200 Descending Boston Center
Sat 07:57:37 AM 41.5317 -73.7822 185° South 377 434 10,900 -1,608 Descending Boston Center
Sat 07:59:10 AM 41.4000 -73.8000 186° South 287 330 9,200 -1,265 Descending New York TRACON
Sat 08:00:04 AM 41.3333 -73.7833 169° South 290 334 7,800 -1,368 Descending New York TRACON
Sat 08:01:04 AM 41.2667 -73.7333 151° Southeast 272 313 6,600 -1,350 Descending New York TRACON
Sat 08:02:04 AM 41.2000 -73.6833 151° Southeast 254 292 5,100 -1,300 Descending New York TRACON
Sat 08:03:04 AM 41.1333 -73.6667 169° South 253 291 4,000 -550 Descending New York TRACON
Sat 08:04:04 AM 41.0667 -73.6500 169° South 247 284 4,000  Level New York TRACON
Sat 08:04:58 AM 41.0000 -73.6333 169° South 247 284 4,000 -211 Level New York TRACON
Sat 08:05:58 AM 40.9333 -73.6500 191° South 235 270 3,600 -526 Descending New York TRACON
Sat 08:06:52 AM 40.9000 -73.6833 217° Southwest 210 242 3,000 -316 Descending New York TRACON
Sat 08:07:52 AM 40.8500 -73.7167 207° Southwest 210 242 3,000 -450 Level New York TRACON
Sat 08:08:52 AM 40.8000 -73.7500 207° Southwest 199 229 2,100 -900 Descending New York TRACON

Login

Don't have an account? Register now (free) for customized features, flight alerts, and more!